createdAt,value
2022-11-02T00:01:57.920Z,100070.97
2022-11-02T00:04:25.307Z,100070.69
2022-11-02T00:06:52.653Z,100066.66
2022-11-02T00:09:20.015Z,100065.84
2022-11-02T00:11:47.392Z,100072.81
2022-11-02T00:14:16.131Z,100063.00
2022-11-02T00:16:43.590Z,100064.47
2022-11-02T00:19:11.419Z,100057.81
2022-11-02T00:21:38.878Z,100053.84
2022-11-02T00:24:07.072Z,100045.50
2022-11-02T00:26:36.298Z,100036.38
2022-11-02T00:29:03.988Z,100033.94
2022-11-02T00:31:32.748Z,100033.59
2022-11-02T00:34:00.100Z,100024.19
2022-11-02T00:36:27.997Z,100027.69
2022-11-02T00:38:55.367Z,100021.00
2022-11-02T00:41:22.942Z,100016.88
2022-11-02T00:43:50.281Z,100030.56
2022-11-02T00:46:17.868Z,100022.75
2022-11-02T00:48:46.601Z,100023.47
2022-11-02T00:51:14.108Z,100027.53
2022-11-02T00:53:43.186Z,100022.22
2022-11-02T00:56:10.803Z,100024.94
2022-11-02T00:58:38.204Z,100024.50
2022-11-02T01:01:06.994Z,100012.53
2022-11-02T01:03:34.648Z,100014.84
2022-11-02T01:06:10.264Z,100011.53
2022-11-02T01:08:38.165Z,100007.09
2022-11-02T01:11:12.920Z,99998.72
2022-11-02T01:13:40.311Z,99993.50
2022-11-02T01:16:08.828Z,99993.59
2022-11-02T01:18:36.247Z,99996.06
2022-11-02T01:21:04.249Z,99994.97
2022-11-02T01:23:34.132Z,100009.59
2022-11-02T01:26:03.737Z,100016.69
2022-11-02T01:28:31.285Z,100003.06
2022-11-02T01:31:00.819Z,100001.16
2022-11-02T01:33:29.453Z,100001.03
2022-11-02T01:35:56.967Z,99997.28
2022-11-02T01:38:24.491Z,99993.06
2022-11-02T01:40:53.163Z,100002.72
2022-11-02T01:43:22.519Z,100002.97
2022-11-02T01:45:52.452Z,99998.75
2022-11-02T01:48:21.939Z,99997.66
2022-11-02T01:50:50.003Z,99999.66
2022-11-02T01:53:17.459Z,100008.78
2022-11-02T01:55:46.249Z,100009.88
2022-11-02T01:58:15.610Z,99999.47
2022-11-02T02:00:43.119Z,100002.13
2022-11-02T02:03:12.392Z,100002.06
2022-11-02T02:05:41.691Z,100005.59
2022-11-02T02:08:10.216Z,99996.28
2022-11-02T02:10:37.569Z,100000.50
2022-11-02T02:13:07.309Z,99990.88
2022-11-02T02:15:48.576Z,99993.63
2022-11-02T02:18:21.820Z,100002.22
2022-11-02T02:21:10.072Z,100005.28
2022-11-02T02:23:54.777Z,100000.78
2022-11-02T02:26:39.075Z,99995.47
2022-11-02T02:29:10.838Z,100000.88
2022-11-02T02:31:41.723Z,99985.56
2022-11-02T02:34:14.993Z,99966.22
2022-11-02T02:39:22.656Z,99980.59
2022-11-02T02:41:55.824Z,99977.31
2022-11-02T02:44:28.848Z,99982.03
2022-11-02T02:46:59.615Z,99980.63
2022-11-02T02:49:29.964Z,99979.25
2022-11-02T02:51:57.619Z,99989.78
2022-11-02T02:54:29.608Z,99986.34
2022-11-02T02:56:58.980Z,99991.81
2022-11-02T02:59:30.692Z,99991.94
2022-11-02T03:02:00.013Z,99978.41
2022-11-02T03:04:27.446Z,99980.44
2022-11-02T03:06:57.031Z,99974.22
2022-11-02T03:09:30.451Z,99973.03
2022-11-02T03:12:13.135Z,99968.59
2022-11-02T03:14:45.412Z,99974.19
2022-11-02T03:17:19.180Z,99984.19
2022-11-02T03:19:52.295Z,99977.56
2022-11-02T03:22:27.003Z,99977.38
2022-11-02T03:25:00.182Z,99970.47
2022-11-02T03:27:36.591Z,99971.72
2022-11-02T03:30:09.418Z,99975.75
2022-11-02T03:32:40.151Z,99973.16
2022-11-02T03:35:12.128Z,99979.91
2022-11-02T03:37:41.882Z,99980.63
2022-11-02T03:40:12.791Z,99984.69
2022-11-02T03:42:43.146Z,99977.81
2022-11-02T03:45:15.873Z,99985.91
2022-11-02T03:47:45.983Z,99979.19
2022-11-02T03:50:16.119Z,99981.50
2022-11-02T03:52:45.586Z,99987.09
2022-11-02T03:55:16.263Z,99980.38
2022-11-02T03:57:46.560Z,99995.94
2022-11-02T04:00:19.606Z,99989.84
2022-11-02T04:02:57.231Z,99994.78
2022-11-02T04:05:29.487Z,99998.47
2022-11-02T04:08:15.487Z,100008.03
2022-11-02T04:10:57.788Z,100014.34
2022-11-02T04:13:42.831Z,100018.50
2022-11-02T04:16:11.648Z,100017.59
2022-11-02T04:18:57.428Z,100016.50
2022-11-02T04:21:25.617Z,100023.69
2022-11-02T04:24:10.740Z,100030.69
2022-11-02T04:26:38.227Z,100024.16
2022-11-02T04:29:05.919Z,100024.44
2022-11-02T04:31:34.794Z,100013.19
2022-11-02T04:34:01.355Z,100028.88
2022-11-02T04:36:30.684Z,100018.56
2022-11-02T04:38:57.969Z,100034.47
2022-11-02T04:41:43.747Z,100025.78
2022-11-02T04:44:29.026Z,100029.91
2022-11-02T04:47:03.226Z,100029.38
2022-11-02T04:49:33.800Z,100032.50
2022-11-02T04:52:01.251Z,100031.03
2022-11-02T04:54:30.571Z,100033.38
2022-11-02T04:57:01.691Z,100034.56
2022-11-02T04:59:30.580Z,100033.75
2022-11-02T05:01:58.909Z,100045.09
2022-11-02T05:04:28.220Z,100043.78
2022-11-02T05:07:01.058Z,100043.97
2022-11-02T05:09:29.117Z,100036.50
2022-11-02T05:11:56.514Z,100045.13
2022-11-02T05:14:24.119Z,100046.72
2022-11-02T05:16:52.102Z,100044.25
2022-11-02T05:19:19.498Z,100044.41
2022-11-02T05:21:48.217Z,100040.88
2022-11-02T05:24:15.604Z,100042.59
2022-11-02T05:26:43.143Z,100034.72
2022-11-02T05:29:10.695Z,100042.59
2022-11-02T05:31:38.206Z,100038.38
2022-11-02T05:34:05.567Z,100047.31
2022-11-02T05:36:33.288Z,100042.13
2022-11-02T05:39:02.197Z,100042.13
2022-11-02T05:41:29.607Z,100060.50
2022-11-02T05:43:59.499Z,100047.19
2022-11-02T05:46:28.945Z,100036.13
2022-11-02T05:48:56.286Z,100046.44
2022-11-02T05:51:23.792Z,100046.81
2022-11-02T05:53:51.471Z,100052.50
2022-11-02T05:56:24.807Z,100069.78
2022-11-02T06:01:24.781Z,100070.66
2022-11-02T06:03:53.709Z,100069.13
2022-11-02T06:06:21.681Z,100071.53
2022-11-02T06:08:49.078Z,100082.69
2022-11-02T06:11:17.381Z,100084.81
2022-11-02T06:13:46.119Z,100076.63
2022-11-02T06:16:19.955Z,100079.16
2022-11-02T06:18:49.985Z,100067.59
2022-11-02T06:21:17.443Z,100087.78
2022-11-02T06:23:47.731Z,100093.31
2022-11-02T06:26:15.674Z,100094.78
2022-11-02T06:28:43.243Z,100098.97
2022-11-02T06:31:12.659Z,100097.81
2022-11-02T06:33:40.026Z,100097.19
2022-11-02T06:36:08.404Z,100101.25
2022-11-02T06:38:35.881Z,100103.03
2022-11-02T06:41:06.460Z,100113.28
2022-11-02T06:43:37.954Z,100106.47
2022-11-02T06:46:05.602Z,100117.13
2022-11-02T06:48:35.742Z,100109.41
2022-11-02T06:51:03.490Z,100110.97
2022-11-02T06:53:30.951Z,100114.50
2022-11-02T06:55:59.386Z,100131.53
2022-11-02T06:58:27.401Z,100110.75
2022-11-02T07:00:58.692Z,100132.25
2022-11-02T07:03:26.108Z,100133.63
2022-11-02T07:05:55.182Z,100138.13
2022-11-02T07:08:23.084Z,100142.97
2022-11-02T07:10:50.779Z,100148.38
2022-11-02T07:13:18.384Z,100155.72
2022-11-02T07:15:45.797Z,100156.31
2022-11-02T07:18:13.654Z,100147.84
2022-11-02T07:20:40.975Z,100158.31
2022-11-02T07:23:10.761Z,100168.25
2022-11-02T07:25:39.328Z,100174.41
2022-11-02T07:28:06.693Z,100171.50
2022-11-02T07:30:37.995Z,100179.97
2022-11-02T07:33:05.762Z,100173.88
2022-11-02T07:35:34.109Z,100178.78
2022-11-02T07:38:02.652Z,100184.22
2022-11-02T07:40:32.665Z,100183.81
2022-11-02T07:43:00.431Z,100188.34
2022-11-02T07:45:35.560Z,100182.81
2022-11-02T07:48:02.933Z,100194.59
2022-11-02T07:50:30.291Z,100199.28
2022-11-02T07:52:58.742Z,100206.56
2022-11-02T07:55:27.466Z,100190.81
2022-11-02T07:57:56.900Z,100206.94
2022-11-02T08:00:24.616Z,100197.72
2022-11-02T08:02:55.585Z,100207.47
2022-11-02T08:05:23.241Z,100210.06
2022-11-02T08:07:57.585Z,100211.16
2022-11-02T08:10:25.466Z,100213.25
2022-11-02T08:12:53.018Z,100215.50
2022-11-02T08:15:21.709Z,100229.19
2022-11-02T08:17:49.098Z,100231.88
2022-11-02T08:20:16.720Z,100231.69
2022-11-02T08:22:44.079Z,100224.06
2022-11-02T08:25:12.022Z,100234.00
2022-11-02T08:27:39.504Z,100228.19
2022-11-02T08:30:07.962Z,100239.72
2022-11-02T08:32:36.816Z,100245.06
2022-11-02T08:35:04.905Z,100240.94
2022-11-02T08:37:32.268Z,100247.53
2022-11-02T08:39:59.646Z,100246.28
2022-11-02T08:42:27.070Z,100243.22
2022-11-02T08:44:54.431Z,100250.88
2022-11-02T08:47:21.808Z,100257.31
2022-11-02T08:49:51.702Z,100259.41
2022-11-02T08:52:19.347Z,100258.41
2022-11-02T08:54:46.770Z,100270.66
2022-11-02T08:57:14.237Z,100266.69
2022-11-02T08:59:44.323Z,100272.63
2022-11-02T09:02:12.006Z,100274.88
2022-11-02T09:04:39.547Z,100269.69
2022-11-02T09:07:08.248Z,100273.00
2022-11-02T09:09:35.604Z,100277.38
2022-11-02T09:12:02.976Z,100273.00
2022-11-02T09:14:30.374Z,100272.53
2022-11-02T09:16:57.797Z,100294.97
2022-11-02T09:19:25.201Z,100273.34
2022-11-02T09:21:52.559Z,100283.56
2022-11-02T09:24:21.223Z,100288.19
2022-11-02T09:26:49.399Z,100291.13
2022-11-02T09:29:16.800Z,100304.84
2022-11-02T09:31:44.232Z,100285.56
2022-11-02T09:34:11.720Z,100304.19
2022-11-02T09:39:06.522Z,100323.38
2022-11-02T09:42:05.379Z,100313.97
2022-11-02T09:44:41.621Z,100315.88
2022-11-02T09:47:55.784Z,100323.09
2022-11-02T09:50:00.053Z,100308.44
2022-11-02T09:52:32.555Z,100314.56
2022-11-02T09:55:00.747Z,100320.72
2022-11-02T09:57:32.386Z,100333.03
2022-11-02T10:00:00.182Z,100339.53
2022-11-02T10:02:32.320Z,100333.03
2022-11-02T10:05:10.912Z,100334.97
2022-11-02T10:07:54.589Z,100355.59
2022-11-02T10:10:27.918Z,100362.59
2022-11-02T10:13:03.786Z,100374.59
2022-11-02T10:15:37.404Z,100369.28
2022-11-02T10:18:19.856Z,100368.31
2022-11-02T10:20:48.811Z,100371.75
2022-11-02T10:23:19.322Z,100369.91
2022-11-02T10:25:48.622Z,100371.97
2022-11-02T10:28:20.307Z,100367.91
2022-11-02T10:30:47.839Z,100381.94
2022-11-02T10:33:17.485Z,100387.91
2022-11-02T10:36:16.379Z,100395.19
2022-11-02T10:38:43.707Z,100405.53
2022-11-02T10:41:39.799Z,100407.09
2022-11-02T10:44:18.165Z,100401.13
2022-11-02T10:46:58.844Z,100413.50
2022-11-02T10:49:41.583Z,100403.44
2022-11-02T10:52:12.429Z,100415.22
2022-11-02T10:54:39.789Z,100411.09
2022-11-02T10:57:11.270Z,100414.28
2022-11-02T10:59:40.266Z,100403.84
2022-11-02T11:02:13.296Z,100415.78
2022-11-02T11:04:41.683Z,100410.25
2022-11-02T11:07:14.989Z,100407.78
2022-11-02T11:09:49.911Z,100436.63
2022-11-02T11:12:20.833Z,100423.47
2022-11-02T11:34:57.705Z,100448.84
2022-11-02T11:37:25.902Z,100463.28
2022-11-02T11:39:56.979Z,100454.09
2022-11-02T11:42:26.363Z,100446.50
2022-11-02T11:44:58.222Z,100446.94
2022-11-02T11:47:30.359Z,100438.69
2022-11-02T11:50:08.625Z,100444.91
2022-11-02T11:52:38.471Z,100442.97
2022-11-02T11:55:21.715Z,100441.31
2022-11-02T11:58:05.981Z,100439.09
2022-11-02T12:00:34.444Z,100434.28
2022-11-02T12:03:07.694Z,100449.38
2022-11-02T12:05:43.349Z,100444.84
2022-11-02T12:08:20.634Z,100426.56
2022-11-02T12:11:02.571Z,100439.69
2022-11-02T12:15:37.210Z,100425.22
2022-11-02T12:18:18.461Z,100424.06
2022-11-02T12:20:54.324Z,100414.19
2022-11-02T12:23:40.347Z,100421.25
2022-11-02T12:26:15.739Z,100424.72
2022-11-02T12:28:47.990Z,100415.25
2022-11-02T12:31:26.579Z,100432.94
2022-11-02T12:34:06.567Z,100426.00
2022-11-02T12:37:09.808Z,100419.56
2022-11-02T12:39:50.129Z,100426.56
2022-11-02T12:42:26.903Z,100432.03
2022-11-02T12:45:11.697Z,100440.31
2022-11-02T12:47:50.952Z,100441.69
2022-11-02T12:50:22.586Z,100438.31
2022-11-02T12:53:04.624Z,100439.38
2022-11-02T12:55:38.355Z,100439.47
2022-11-02T12:58:08.922Z,100443.44
2022-11-02T13:00:38.471Z,100449.84
2022-11-02T13:03:16.895Z,100433.47
2022-11-02T13:05:50.339Z,100432.94
2022-11-02T13:08:19.335Z,100437.00
2022-11-02T13:10:53.298Z,100441.44
2022-11-02T13:13:29.012Z,100440.97
2022-11-02T13:15:57.017Z,100433.00
2022-11-02T13:18:29.893Z,100429.78
2022-11-02T13:20:59.208Z,100433.09
2022-11-02T13:26:01.079Z,100441.88
2022-11-02T13:28:34.912Z,100437.44
2022-11-02T13:31:07.627Z,100429.22
2022-11-02T13:33:44.689Z,100436.44
2022-11-02T13:36:12.942Z,100438.19
2022-11-02T13:38:42.140Z,100436.16
2022-11-02T13:41:20.933Z,100443.81
2022-11-02T13:44:06.864Z,100451.38
2022-11-02T13:46:47.960Z,100453.16
2022-11-02T13:49:19.120Z,100457.28
2022-11-02T13:51:47.896Z,100445.75
2022-11-02T13:54:18.949Z,100453.97
2022-11-02T13:56:46.973Z,100456.19
2022-11-02T13:59:22.064Z,100461.16
2022-11-02T14:01:49.868Z,100459.59
2022-11-02T14:04:19.928Z,100464.19
2022-11-02T14:06:52.131Z,100459.03
2022-11-02T14:09:31.411Z,100450.22
2022-11-02T14:12:27.277Z,100465.94
2022-11-02T14:15:48.527Z,100464.31
2022-11-02T14:18:30.631Z,100464.53
2022-11-02T14:20:59.872Z,100462.63
2022-11-02T14:23:39.176Z,100450.19
2022-11-02T14:26:32.040Z,100454.56
2022-11-02T14:28:59.607Z,100458.34
2022-11-02T14:31:40.451Z,100450.88
2022-11-02T14:34:19.244Z,100453.44
2022-11-02T14:36:57.288Z,100451.78
2022-11-02T14:39:28.757Z,100449.13
2022-11-02T14:42:12.326Z,100443.66
2022-11-02T14:44:52.872Z,100452.03
2022-11-02T14:47:20.720Z,100447.84
2022-11-02T14:49:50.632Z,100458.69
2022-11-02T14:52:25.481Z,100461.09
2022-11-02T14:54:54.967Z,100454.34
2022-11-02T14:57:25.420Z,100459.41
2022-11-02T14:59:55.252Z,100461.31
2022-11-02T15:02:25.280Z,100463.84
2022-11-02T15:04:54.150Z,100450.44
2022-11-02T15:07:26.730Z,100445.78
2022-11-02T15:09:57.067Z,100447.19
2022-11-02T15:12:30.932Z,100445.72
2022-11-02T15:15:35.062Z,100444.75
2022-11-02T15:18:23.029Z,100453.03
2022-11-02T15:21:22.328Z,100456.56
2022-11-02T15:23:55.026Z,100460.16
2022-11-02T15:26:26.801Z,100459.56
2022-11-02T15:28:57.601Z,100451.25
2022-11-02T15:31:26.510Z,100449.06
2022-11-02T15:33:56.143Z,100458.44
2022-11-02T15:36:27.837Z,100458.00
2022-11-02T15:38:56.765Z,100449.59
2022-11-02T15:41:29.315Z,100448.13
2022-11-02T15:44:07.491Z,100450.69
2022-11-02T15:46:46.450Z,100457.88
2022-11-02T15:49:24.345Z,100444.69
2022-11-02T15:51:57.708Z,100446.41
2022-11-02T15:54:45.864Z,100449.25
2022-11-02T15:57:17.932Z,100447.91
2022-11-02T16:00:02.061Z,100447.03
2022-11-02T16:02:37.963Z,100437.91
2022-11-02T16:05:06.983Z,100440.09
2022-11-02T16:07:50.242Z,100436.75
2022-11-02T16:10:27.903Z,100435.59
2022-11-02T16:13:02.558Z,100441.06
2022-11-02T16:15:30.211Z,100433.44
2022-11-02T16:17:58.318Z,100445.13
2022-11-02T16:20:28.012Z,100442.28
2022-11-02T16:22:56.696Z,100444.13
2022-11-02T16:25:36.803Z,100443.16
2022-11-02T16:28:18.677Z,100442.66
2022-11-02T16:30:59.081Z,100443.81
2022-11-02T16:33:26.984Z,100448.81
2022-11-02T16:35:54.493Z,100441.81
2022-11-02T16:38:23.192Z,100445.31
2022-11-02T16:40:52.162Z,100439.19
2022-11-02T16:43:20.303Z,100438.66
2022-11-02T16:45:50.625Z,100440.34
2022-11-02T16:48:21.321Z,100444.00
2022-11-02T16:51:02.950Z,100445.81
2022-11-02T16:53:31.771Z,100448.34
2022-11-02T16:56:15.375Z,100450.81
2022-11-02T16:58:46.513Z,100456.81
2022-11-02T17:01:20.996Z,100451.81
2022-11-02T17:03:48.763Z,100451.13
2022-11-02T17:06:17.060Z,100444.47
2022-11-02T17:08:45.474Z,100449.16
2022-11-02T17:11:16.526Z,100445.66
2022-11-02T17:13:47.335Z,100441.47
2022-11-02T17:16:14.719Z,100453.16
2022-11-02T17:18:42.121Z,100444.50
2022-11-02T17:21:25.328Z,100448.63
2022-11-02T17:23:53.224Z,100452.28
2022-11-02T17:26:28.653Z,100449.97
2022-11-02T17:28:57.095Z,100448.78
2022-11-02T17:31:26.723Z,100442.16
2022-11-02T17:33:54.482Z,100453.13
2022-11-02T17:36:21.999Z,100453.13
2022-11-02T17:38:49.357Z,100456.47
2022-11-02T17:41:35.705Z,100458.97
2022-11-02T17:44:04.819Z,100454.28
2022-11-02T17:46:32.364Z,100450.47
2022-11-02T17:48:59.772Z,100456.63
2022-11-02T17:51:27.217Z,100457.78
2022-11-02T17:53:54.576Z,100455.28
2022-11-02T17:56:21.972Z,100449.94
2022-11-02T17:58:49.309Z,100453.44
2022-11-02T18:01:19.541Z,100447.94
2022-11-02T18:03:46.962Z,100447.94
2022-11-02T18:06:14.327Z,100435.66
2022-11-02T18:08:59.484Z,100431.50
2022-11-02T18:11:26.893Z,100430.50
2022-11-02T18:13:54.354Z,100438.63
2022-11-02T18:16:23.066Z,100434.97
2022-11-02T18:18:50.527Z,100434.31
2022-11-02T18:21:17.880Z,100439.31
2022-11-02T18:26:46.715Z,100432.66
2022-11-02T18:29:14.535Z,100437.16
2022-11-02T18:31:43.388Z,100428.00
2022-11-02T18:34:11.163Z,100431.31
2022-11-02T18:36:38.952Z,100418.34
2022-11-02T18:39:06.512Z,100420.53
2022-11-02T18:41:36.812Z,100415.56
2022-11-02T18:44:13.560Z,100419.84
2022-11-02T18:46:44.113Z,100417.69
2022-11-02T18:49:11.507Z,100418.34
2022-11-02T18:51:42.716Z,100414.53
2022-11-02T18:54:10.180Z,100413.72
2022-11-02T18:56:37.532Z,100412.56
2022-11-02T18:59:05.211Z,100390.25
2022-11-02T19:01:32.871Z,100411.06
2022-11-02T19:04:02.150Z,100402.56
2022-11-02T19:06:48.458Z,100402.41
2022-11-02T19:09:19.764Z,100405.56
2022-11-02T19:11:48.616Z,100403.41
2022-11-02T19:14:16.340Z,100407.25
2022-11-02T19:16:43.780Z,100404.91
2022-11-02T19:19:12.585Z,100403.56
2022-11-02T19:21:40.203Z,100392.91
2022-11-02T19:24:08.621Z,100389.94
2022-11-02T19:26:36.768Z,100387.25
2022-11-02T19:29:06.510Z,100377.28
2022-11-02T19:31:35.086Z,100378.94
2022-11-02T19:34:02.999Z,100384.94
2022-11-02T19:36:31.997Z,100377.94
2022-11-02T19:39:03.021Z,100375.81
2022-11-02T19:41:31.021Z,100367.81
2022-11-02T19:43:58.613Z,100369.47
2022-11-02T19:46:27.312Z,100369.94
2022-11-02T19:48:56.666Z,100360.31
2022-11-02T19:51:25.587Z,100358.97
2022-11-02T19:53:56.071Z,100358.31
2022-11-02T19:56:23.964Z,100356.97
2022-11-02T19:58:52.607Z,100346.69
2022-11-02T20:01:21.399Z,100356.81
2022-11-02T20:03:49.817Z,100359.16
2022-11-02T20:06:20.036Z,100356.50
2022-11-02T20:08:50.212Z,100356.97
2022-11-02T20:11:19.637Z,100355.13
2022-11-02T20:13:48.104Z,100359.47
2022-11-02T20:16:17.119Z,100353.97
2022-11-02T20:18:45.992Z,100353.66
2022-11-02T20:21:14.912Z,100355.56
2022-11-02T20:23:43.304Z,100359.38
2022-11-02T20:26:12.340Z,100360.03
2022-11-02T20:28:44.093Z,100349.09
2022-11-02T20:31:14.145Z,100358.88
2022-11-02T20:33:41.844Z,100352.44
2022-11-02T20:36:10.572Z,100345.63
2022-11-02T20:38:38.094Z,100355.22
2022-11-02T20:41:07.811Z,100352.91
2022-11-02T20:43:35.871Z,100337.94
2022-11-02T20:46:35.399Z,100335.97
2022-11-02T20:48:54.243Z,100336.63
2022-11-02T20:51:22.459Z,100331.66
2022-11-02T20:53:50.052Z,100326.66
2022-11-02T20:56:17.838Z,100324.41
2022-11-02T20:58:49.944Z,100316.75
2022-11-02T21:01:22.217Z,100312.28
2022-11-02T21:03:49.646Z,100306.47
2022-11-02T21:06:17.038Z,100284.19
2022-11-02T21:08:44.426Z,100297.66
2022-11-02T21:11:25.919Z,100306.78
2022-11-02T21:13:53.344Z,100303.47
2022-11-02T21:16:22.224Z,100299.69
2022-11-02T21:18:49.763Z,100299.97
2022-11-02T21:21:18.288Z,100292.84
2022-11-02T21:23:46.319Z,100288.50
2022-11-02T21:26:15.283Z,100284.53
2022-11-02T21:28:44.678Z,100284.19
2022-11-02T21:31:15.058Z,100284.38
2022-11-02T21:33:44.329Z,100269.09
2022-11-02T21:36:11.763Z,100272.22
2022-11-02T21:38:39.643Z,100280.88
2022-11-02T21:41:08.575Z,100274.25
2022-11-02T21:43:37.028Z,100285.53
2022-11-02T21:46:06.095Z,100276.56
2022-11-02T21:48:35.104Z,100281.56
2022-11-02T21:51:05.987Z,100269.41
2022-11-02T21:53:33.819Z,100277.03
2022-11-02T21:56:02.515Z,100267.06
2022-11-02T21:58:30.180Z,100261.59
2022-11-02T22:01:17.355Z,100266.06
2022-11-02T22:03:44.837Z,100259.91
2022-11-02T22:06:13.603Z,100251.78
2022-11-02T22:08:41.519Z,100263.28
2022-11-02T22:11:10.863Z,100261.56
2022-11-02T22:13:39.679Z,100249.13
2022-11-02T22:16:08.717Z,100254.28
2022-11-02T22:18:36.117Z,100249.78
2022-11-02T22:21:03.623Z,100248.63
2022-11-02T22:23:32.351Z,100251.97
2022-11-02T22:26:00.319Z,100243.97
2022-11-02T22:28:31.078Z,100236.50
2022-11-02T22:30:58.629Z,100233.69
2022-11-02T22:33:26.007Z,100227.53
2022-11-02T22:35:53.447Z,100209.25
2022-11-02T22:38:38.239Z,100216.22
2022-11-02T22:41:07.553Z,100220.34
2022-11-02T22:43:35.663Z,100210.38
2022-11-02T22:46:03.443Z,100209.22
2022-11-02T22:48:31.004Z,100217.38
2022-11-02T22:50:58.448Z,100216.56
2022-11-02T22:53:27.584Z,100209.53
2022-11-02T22:56:02.265Z,100216.38
2022-11-02T22:58:32.921Z,100207.06
2022-11-02T23:01:00.904Z,100202.56
2022-11-02T23:03:31.235Z,100200.06
2022-11-02T23:05:58.668Z,100192.75
2022-11-02T23:11:13.303Z,100200.13
2022-11-02T23:13:46.152Z,100187.66
2022-11-02T23:16:23.758Z,100183.97
2022-11-02T23:19:10.499Z,100178.34
2022-11-02T23:21:38.535Z,100183.66
2022-11-02T23:24:24.344Z,100167.38
2022-11-02T23:26:51.699Z,100173.53
2022-11-02T23:29:38.259Z,100174.03
2022-11-02T23:32:23.684Z,100161.66
2022-11-02T23:35:08.706Z,100167.13
2022-11-02T23:37:36.163Z,100151.13
2022-11-02T23:40:03.681Z,100157.94
2022-11-02T23:42:31.136Z,100164.44
2022-11-02T23:45:00.540Z,100159.94
2022-11-02T23:47:43.427Z,100154.22
2022-11-02T23:50:11.172Z,100151.44
2022-11-02T23:52:56.499Z,100144.28
2022-11-02T23:55:43.815Z,100154.56
2022-11-02T23:58:11.265Z,100146.41
